Time;durP1;ratioP1;P1;durP2;ratioP2;P2;SDS_P1;SDS_P2;PMS_P1;PMS_P2;Temp;Humidity;BMP_temperature;BMP_pressure;BME280_temperature;BME280_humidity;BME280_pressure;Samples;Min_cycle;Max_cycle;Signal;HPM_P1;HPM_P2
2022/09/02 00:01:26;;;;;;;62.28;59.92;;;;;;;15.08;82.55;102046.56;5076813;28;20508;-73
2022/09/02 00:03:55;;;;;;;62.55;60.20;;;;;;;15.04;81.89;102048.69;5077592;28;20024;-73
2022/09/02 00:06:21;;;;;;;59.85;57.60;;;;;;;15.07;82.10;102040.44;5083932;28;20407;-73
2022/09/02 00:08:46;;;;;;;60.05;57.75;;;;;;;14.92;82.35;102020.66;5073417;28;20035;-73
2022/09/02 00:11:14;;;;;;;57.58;55.40;;;;;;;15.05;82.36;102042.41;5042085;28;20585;-73
2022/09/02 00:13:40;;;;;;;59.22;56.95;;;;;;;15.05;82.17;102044.19;5077953;28;20101;-73
2022/09/02 00:16:06;;;;;;;54.53;52.50;;;;;;;14.97;81.75;102029.00;5078483;28;20328;-73
2022/09/02 00:18:32;;;;;;;50.33;48.40;;;;;;;14.99;81.85;102033.19;5074234;28;20035;-73
2022/09/02 00:20:58;;;;;;;49.97;48.13;;;;;;;15.00;81.81;102039.34;5080478;28;20047;-73
2022/09/02 00:23:23;;;;;;;48.85;46.90;;;;;;;14.88;82.28;102020.13;5087923;28;20036;-74
2022/09/02 00:25:49;;;;;;;54.47;52.45;;;;;;;14.95;82.65;102036.28;5078668;28;20039;-73
2022/09/02 00:28:15;;;;;;;51.67;49.55;;;;;;;14.91;81.88;102035.75;5076446;28;21234;-73
2022/09/02 00:30:41;;;;;;;47.92;46.15;;;;;;;14.93;82.26;102028.47;5074429;28;20040;-73
2022/09/02 00:33:07;;;;;;;49.92;48.08;;;;;;;14.76;82.82;102010.66;5077435;28;20023;-73
2022/09/02 00:35:33;;;;;;;50.13;48.25;;;;;;;14.85;82.75;102025.75;5066075;28;20488;-73
2022/09/02 00:37:59;;;;;;;52.55;50.58;;;;;;;14.85;83.03;102027.53;5080785;28;20097;-73
2022/09/02 00:40:26;;;;;;;53.67;51.63;;;;;;;14.82;83.06;102023.38;5080503;28;20040;-73
2022/09/02 00:42:52;;;;;;;53.17;51.20;;;;;;;14.80;82.65;102028.81;5078601;28;20024;-73
2022/09/02 00:45:19;;;;;;;48.63;46.72;;;;;;;14.79;83.09;102032.47;5082325;28;20600;-73
2022/09/02 00:47:46;;;;;;;51.28;49.22;;;;;;;14.76;82.87;102024.81;5076094;28;20480;-73
2022/09/02 00:50:14;;;;;;;49.85;48.00;;;;;;;14.75;83.68;102017.81;5084057;28;20032;-73
2022/09/02 00:52:43;;;;;;;45.22;43.55;;;;;;;14.75;83.21;102019.63;5070000;28;20035;-73
2022/09/02 00:55:19;;;;;;;47.17;45.42;;;;;;;14.77;83.02;102017.66;5074416;28;20017;-73
2022/09/02 00:57:55;;;;;;;43.78;42.10;;;;;;;14.72;82.44;102026.09;5074688;28;20032;-73
2022/09/02 01:00:25;;;;;;;45.53;43.83;;;;;;;14.67;83.27;102028.34;5075073;28;20036;-73
2022/09/02 01:03:03;;;;;;;48.15;46.38;;;;;;;14.68;82.58;102019.41;5082543;28;20032;-73
2022/09/02 01:05:32;;;;;;;43.20;41.60;;;;;;;14.58;83.11;102021.25;5085430;28;20024;-73
2022/09/02 01:07:58;;;;;;;42.58;41.03;;;;;;;14.61;82.69;102010.31;5077922;28;20403;-73
2022/09/02 01:10:27;;;;;;;43.35;41.78;;;;;;;14.61;82.92;102015.63;5073651;28;20024;-73
2022/09/02 01:12:57;;;;;;;39.35;37.90;;;;;;;14.58;83.29;102005.31;5078196;28;20059;-73
2022/09/02 01:15:23;;;;;;;54.47;52.40;;;;;;;14.49;83.74;102008.84;5075849;28;20036;-73
2022/09/02 01:17:50;;;;;;;51.72;49.83;;;;;;;14.44;83.77;102011.94;5080916;28;20028;-73
2022/09/02 01:20:20;;;;;;;52.30;50.33;;;;;;;14.48;83.27;101999.19;5084257;28;20016;-73
2022/09/02 01:22:45;;;;;;;54.72;52.67;;;;;;;14.44;83.70;102000.44;5075479;28;20062;-73
2022/09/02 01:25:15;;;;;;;48.30;46.50;;;;;;;14.29;82.86;101986.84;5076994;28;20024;-73
2022/09/02 01:27:41;;;;;;;53.53;51.53;;;;;;;14.42;83.40;102008.59;5079601;28;20054;-73
2022/09/02 01:30:10;;;;;;;44.25;42.58;;;;;;;14.45;82.49;102002.13;5053251;28;20443;-73
2022/09/02 01:32:36;;;;;;;52.33;50.35;;;;;;;14.39;82.86;102000.91;5072482;28;20048;-73
2022/09/02 01:35:03;;;;;;;48.22;46.42;;;;;;;14.27;83.00;102000.25;5071191;28;20051;-73
2022/09/02 01:37:28;;;;;;;52.15;50.22;;;;;;;14.27;83.41;102010.88;5080187;28;20070;-73
2022/09/02 01:39:56;;;;;;;45.72;43.80;;;;;;;13.96;82.81;101950.09;5060505;28;20391;-72
2022/09/02 01:42:21;;;;;;;55.25;52.33;;;;;;;14.29;82.91;101992.97;5074055;28;20487;-73
2022/09/02 01:44:47;;;;;;;47.40;45.58;;;;;;;14.16;83.27;101981.88;5076604;28;20032;-73
2022/09/02 01:47:16;;;;;;;46.17;44.47;;;;;;;14.14;82.46;101978.50;5058462;28;20077;-73
2022/09/02 01:49:41;;;;;;;43.53;41.88;;;;;;;14.27;82.06;101992.28;5073990;28;20077;-73
2022/09/02 01:52:08;;;;;;;45.50;43.70;;;;;;;14.27;82.45;101994.94;5082867;28;20037;-73
2022/09/02 01:54:33;;;;;;;47.05;45.28;;;;;;;14.25;82.63;101988.94;5081698;28;20024;-73
2022/09/02 01:56:59;;;;;;;42.95;41.38;;;;;;;14.23;82.27;101992.72;5074242;28;20035;-73
2022/09/02 01:59:24;;;;;;;43.80;42.15;;;;;;;14.21;82.26;101982.25;5069254;28;20055;-73
2022/09/02 02:01:50;;;;;;;39.30;37.83;;;;;;;14.10;82.05;101971.81;5078520;28;20035;-73
2022/09/02 02:04:15;;;;;;;43.08;41.50;;;;;;;14.15;82.47;101980.19;5069866;28;20485;-73
2022/09/02 02:06:42;;;;;;;39.10;37.63;;;;;;;14.05;81.89;101958.16;5078893;28;20039;-73
2022/09/02 02:09:09;;;;;;;43.28;41.67;;;;;;;14.13;82.60;101976.81;5055739;28;20056;-73
2022/09/02 02:11:35;;;;;;;44.92;43.28;;;;;;;14.06;82.77;101965.13;5069842;28;20033;-73
2022/09/02 02:14:01;;;;;;;47.17;45.45;;;;;;;13.94;82.68;101954.69;5080999;28;20039;-73
2022/09/02 02:16:27;;;;;;;42.58;41.03;;;;;;;14.08;82.31;101971.97;5077346;28;20372;-74
2022/09/02 02:18:52;;;;;;;43.63;41.75;;;;;;;14.01;82.34;101956.78;5080383;28;20039;-74
2022/09/02 02:21:18;;;;;;;45.03;43.25;;;;;;;14.09;81.60;101970.13;5073214;28;20032;-73
2022/09/02 02:23:43;;;;;;;39.50;38.00;;;;;;;14.09;81.86;101975.44;5079833;28;20508;-73
2022/09/02 02:26:08;;;;;;;41.17;39.65;;;;;;;14.07;82.79;101967.66;5075156;28;20036;-73
2022/09/02 02:28:34;;;;;;;48.60;46.80;;;;;;;14.04;82.58;101965.25;5082361;28;20082;-73
2022/09/02 02:31:00;;;;;;;44.90;43.15;;;;;;;14.02;82.85;101969.06;5070750;28;20032;-73
2022/09/02 02:33:27;;;;;;;55.55;53.45;;;;;;;13.93;83.58;101976.06;5077068;28;20058;-73
2022/09/02 02:35:54;;;;;;;54.78;52.72;;;;;;;13.93;83.53;101968.94;5082064;28;20066;-73
2022/09/02 02:38:19;;;;;;;57.38;55.03;;;;;;;13.91;83.02;101967.41;5074649;28;20032;-73
2022/09/02 02:40:45;;;;;;;54.70;52.60;;;;;;;13.90;83.12;101960.44;5078267;28;20028;-73
2022/09/02 02:43:10;;;;;;;58.10;55.90;;;;;;;13.86;83.69;101964.38;5073419;28;20127;-73
2022/09/02 02:45:35;;;;;;;62.83;60.40;;;;;;;13.86;83.65;101959.06;5077193;28;20024;-73
2022/09/02 02:48:01;;;;;;;56.40;54.30;;;;;;;13.85;83.72;101962.66;5077163;28;20493;-73
2022/09/02 02:50:27;;;;;;;60.67;58.47;;;;;;;13.79;83.89;101948.19;5077842;28;20055;-73
2022/09/02 02:52:53;;;;;;;60.50;58.20;;;;;;;13.78;83.84;101947.34;5071914;28;20103;-73
2022/09/02 02:55:19;;;;;;;61.83;59.53;;;;;;;13.78;83.87;101957.97;5074837;28;20066;-73
2022/09/02 02:57:45;;;;;;;60.97;58.67;;;;;;;13.77;84.08;101953.63;5074265;28;20047;-73
2022/09/02 03:00:13;;;;;;;63.13;60.75;;;;;;;13.76;83.49;101953.75;5076294;28;20508;-73
2022/09/02 03:02:38;;;;;;;62.30;59.80;;;;;;;13.75;84.36;101954.75;5075172;28;20528;-73
2022/09/02 03:05:06;;;;;;;61.13;58.78;;;;;;;13.76;84.35;101956.41;5067080;28;20071;-73
2022/09/02 03:07:31;;;;;;;58.58;56.35;;;;;;;13.76;83.86;101948.44;5073909;28;20119;-73
2022/09/02 03:09:56;;;;;;;65.68;63.28;;;;;;;13.71;83.77;101946.22;5074079;28;20559;-73
2022/09/02 03:12:22;;;;;;;68.35;65.78;;;;;;;13.72;83.96;101952.41;5074394;28;20078;-73
2022/09/02 03:14:48;;;;;;;60.40;58.15;;;;;;;13.71;83.42;101948.06;5079966;28;20389;-73
2022/09/02 03:17:14;;;;;;;56.55;54.45;;;;;;;13.72;83.42;101955.06;5072825;28;20060;-73
2022/09/02 03:19:40;;;;;;;52.72;50.75;;;;;;;13.71;83.02;101945.41;5071654;28;20040;-73
2022/09/02 03:22:05;;;;;;;52.60;50.60;;;;;;;13.69;83.69;101950.84;5079595;28;20031;-73
2022/09/02 03:24:31;;;;;;;50.65;48.75;;;;;;;13.70;82.82;101949.06;5072160;28;21501;-73
2022/09/02 03:26:56;;;;;;;57.58;55.40;;;;;;;13.65;83.08;101941.50;5078353;28;20077;-73
2022/09/02 03:29:22;;;;;;;56.33;54.15;;;;;;;13.61;83.82;101939.28;5070144;28;20463;-73
2022/09/02 03:31:47;;;;;;;54.58;52.53;;;;;;;13.60;83.53;101945.56;5061174;28;20024;-73
2022/09/02 03:34:12;;;;;;;55.53;53.42;;;;;;;13.56;85.05;101939.72;5077626;28;20029;-73
2022/09/02 03:36:39;;;;;;;60.20;57.90;;;;;;;13.52;84.67;101941.84;5073882;28;20025;-73
2022/09/02 03:39:09;;;;;;;64.30;61.88;;;;;;;13.43;84.69;101921.44;5077525;28;20442;-73
2022/09/02 03:41:35;;;;;;;59.63;57.40;;;;;;;13.49;83.85;101936.78;5074038;28;20029;-73
2022/09/02 03:44:01;;;;;;;57.25;55.13;;;;;;;13.48;84.20;101928.97;5077610;28;20036;-73
2022/09/02 03:46:26;;;;;;;60.30;58.08;;;;;;;13.45;85.05;101935.41;5080831;28;20447;-73
2022/09/02 03:48:52;;;;;;;60.75;58.47;;;;;;;13.42;85.06;101935.69;5079019;28;20032;-73
2022/09/02 03:51:21;;;;;;;60.67;58.35;;;;;;;13.38;84.37;101924.53;5077538;28;20054;-73
2022/09/02 03:53:47;;;;;;;62.17;59.83;;;;;;;13.34;84.31;101922.31;5078191;28;20500;-73
2022/09/02 03:56:14;;;;;;;58.03;55.83;;;;;;;13.35;83.97;101924.81;5075208;28;20028;-73
2022/09/02 03:58:41;;;;;;;57.45;55.22;;;;;;;13.35;84.31;101926.66;5076398;28;20107;-73
2022/09/02 04:01:11;;;;;;;64.35;61.85;;;;;;;13.28;84.64;101923.72;5075856;28;20027;-73
2022/09/02 04:03:36;;;;;;;55.00;52.90;;;;;;;13.24;85.16;101924.94;5074279;28;20052;-73
2022/09/02 04:06:02;;;;;;;56.78;54.65;;;;;;;13.24;85.88;101922.31;5079923;28;20485;-73
2022/09/02 04:08:27;;;;;;;57.70;55.30;;;;;;;13.23;86.05;101927.72;5077225;28;20077;-73
2022/09/02 04:10:55;;;;;;;45.70;44.00;;;;;;;13.14;86.65;101921.47;5073630;28;20035;-73
2022/09/02 04:13:20;;;;;;;48.03;46.13;;;;;;;13.03;86.42;101911.84;5087216;28;20020;-73
2022/09/02 04:15:47;;;;;;;56.45;54.35;;;;;;;13.09;86.39;101919.22;5057516;28;20055;-73
2022/09/02 04:18:15;;;;;;;50.25;48.35;;;;;;;13.16;86.09;101919.50;5080390;28;20016;-73
2022/09/02 04:20:41;;;;;;;51.67;49.70;;;;;;;13.12;86.64;101911.00;5078259;28;20031;-73
2022/09/02 04:23:06;;;;;;;48.75;46.85;;;;;;;13.06;86.66;101927.44;5076944;28;20025;-73
2022/09/02 04:25:32;;;;;;;49.83;47.92;;;;;;;13.01;87.20;101905.84;5077492;28;20020;-73
2022/09/02 04:27:58;;;;;;;48.72;46.92;;;;;;;13.05;86.55;101917.84;5064338;28;20032;-73
2022/09/02 04:30:24;;;;;;;46.42;44.63;;;;;;;13.06;87.20;101919.50;5079626;28;20040;-73
2022/09/02 04:32:50;;;;;;;46.63;44.83;;;;;;;13.06;86.86;101918.66;5070691;28;20102;-73
2022/09/02 04:35:16;;;;;;;46.35;44.58;;;;;;;13.08;86.61;101917.53;5081407;28;20028;-73
2022/09/02 04:37:43;;;;;;;47.38;45.58;;;;;;;13.04;87.19;101915.31;5080946;28;20058;-73
2022/09/02 04:40:09;;;;;;;46.72;44.95;;;;;;;12.99;88.33;101902.50;5080033;28;20040;-74
2022/09/02 04:42:34;;;;;;;45.05;43.33;;;;;;;13.06;87.35;101919.50;5079561;28;20278;-73
2022/09/02 04:45:00;;;;;;;50.38;48.47;;;;;;;13.01;87.07;101903.19;5075508;28;20028;-73
2022/09/02 04:47:26;;;;;;;49.30;47.40;;;;;;;13.07;87.81;101907.94;5078847;28;20484;-73
2022/09/02 04:49:52;;;;;;;54.13;52.03;;;;;;;13.09;86.79;101913.09;5078469;28;20034;-73
2022/09/02 04:52:19;;;;;;;50.15;48.22;;;;;;;13.06;87.25;101903.59;5074451;28;20034;-73
2022/09/02 04:54:45;;;;;;;49.92;48.03;;;;;;;12.94;87.39;101888.84;5076734;28;20083;-73
2022/09/02 04:57:10;;;;;;;49.53;47.63;;;;;;;13.05;88.22;101911.72;5073775;28;20424;-73
2022/09/02 04:59:36;;;;;;;49.80;47.80;;;;;;;12.97;88.24;101893.84;5070801;28;20036;-73
2022/09/02 05:02:03;;;;;;;53.92;51.88;;;;;;;12.96;88.08;101893.00;5073072;28;20058;-73
2022/09/02 05:04:29;;;;;;;47.85;45.80;;;;;;;12.94;88.97;101889.66;5079494;28;20579;-72
2022/09/02 05:06:56;;;;;;;54.92;52.78;;;;;;;12.97;88.71;101899.97;5060775;28;20039;-72
2022/09/02 05:09:22;;;;;;;45.42;43.72;;;;;;;13.07;87.61;101905.28;5078156;28;20036;-70
2022/09/02 05:11:47;;;;;;;45.05;43.35;;;;;;;13.11;88.19;101909.34;5079826;28;20032;-70
2022/09/02 05:14:15;;;;;;;44.55;42.83;;;;;;;13.10;88.67;101910.28;5075799;28;20036;-71
2022/09/02 05:16:41;;;;;;;48.35;46.47;;;;;;;13.10;87.62;101915.59;5076840;28;20027;-71
2022/09/02 05:19:10;;;;;;;49.20;47.30;;;;;;;13.16;88.80;101904.44;5076857;28;20039;-71
2022/09/02 05:21:43;;;;;;;49.83;47.92;;;;;;;13.16;87.68;101909.72;5082738;28;20021;-71
2022/09/02 05:24:09;;;;;;;60.40;58.15;;;;;;;13.20;86.67;101901.53;5049857;28;20071;-71
2022/09/02 05:26:36;;;;;;;58.90;56.67;;;;;;;13.26;86.63;101909.75;5075910;28;20032;-71
2022/09/02 05:29:05;;;;;;;57.80;55.60;;;;;;;13.32;87.74;101905.69;5049899;28;20603;-71
2022/09/02 05:31:31;;;;;;;61.03;58.70;;;;;;;13.34;87.80;101898.44;5070551;28;20032;-71
2022/09/02 05:33:56;;;;;;;57.72;55.22;;;;;;;13.40;88.90;101912.97;5075610;28;20495;-71
2022/09/02 05:36:22;;;;;;;52.08;50.08;;;;;;;13.32;89.60;101897.75;5075854;28;20032;-73
2022/09/02 05:38:48;;;;;;;58.55;56.15;;;;;;;13.25;89.02;101884.19;5075112;28;20124;-73
2022/09/02 05:41:23;;;;;;;56.35;54.17;;;;;;;13.42;88.57;101903.88;5072916;28;20024;-73
2022/09/02 05:43:51;;;;;;;58.28;56.05;;;;;;;13.43;88.89;101910.84;5051433;28;20039;-73
2022/09/02 05:46:19;;;;;;;57.72;55.53;;;;;;;13.47;89.11;101906.94;5072805;28;20433;-74
2022/09/02 05:51:39;;;;;;;63.42;60.92;;;;;;;13.50;89.37;101906.66;5075952;28;20080;-74
2022/09/02 05:54:05;;;;;;;63.38;60.88;;;;;;;13.58;89.27;101909.41;5059664;28;20563;-73
2022/09/02 05:56:30;;;;;;;57.72;55.40;;;;;;;13.63;89.64;101910.78;5071370;28;20066;-74
2022/09/02 05:58:57;;;;;;;70.05;67.32;;;;;;;13.72;89.92;101915.25;5074575;28;20055;-73
2022/09/02 06:01:23;;;;;;;60.60;58.30;;;;;;;13.78;88.91;101910.22;5073473;28;20031;-74
2022/09/02 06:03:49;;;;;;;65.05;62.50;;;;;;;13.68;89.30;101890.00;5073738;28;20032;-74
2022/09/02 06:06:15;;;;;;;62.53;60.15;;;;;;;13.87;89.25;101902.34;5050751;28;20313;-73
2022/09/02 06:08:40;;;;;;;61.65;59.03;;;;;;;13.92;89.25;101900.94;5070713;28;20028;-74
2022/09/02 06:11:08;;;;;;;61.38;58.78;;;;;;;13.96;88.74;101897.00;5074184;28;20111;-74
2022/09/02 06:13:37;;;;;;;63.50;61.10;;;;;;;14.03;89.40;101891.13;5070068;28;20081;-74
2022/09/02 06:16:03;;;;;;;66.63;62.38;;;;;;;14.07;89.35;101887.19;5069161;28;20048;-73
2022/09/02 06:18:28;;;;;;;80.75;64.47;;;;;;;14.19;88.58;101899.25;5078533;28;20392;-74
2022/09/02 06:20:54;;;;;;;71.43;65.60;;;;;;;14.25;88.21;101893.34;5073660;28;20025;-74
2022/09/02 06:23:20;;;;;;;68.20;65.00;;;;;;;14.34;86.83;101896.94;5073603;28;20099;-74
2022/09/02 06:25:47;;;;;;;76.15;72.97;;;;;;;14.40;85.42;101894.53;5067557;28;20634;-74
2022/09/02 06:28:14;;;;;;;79.60;76.05;;;;;;;14.46;85.31;101886.94;5072847;28;20475;-74
2022/09/02 06:30:44;;;;;;;73.13;68.15;;;;;;;14.64;85.15;101906.44;5074289;28;20077;-74
2022/09/02 06:33:10;;;;;;;81.28;76.40;;;;;;;14.76;84.83;101899.91;5075807;28;20029;-74
2022/09/02 06:35:41;;;;;;;78.07;73.15;;;;;;;14.86;83.96;101904.31;5073902;28;20032;-74
2022/09/02 06:38:07;;;;;;;79.38;76.18;;;;;;;14.90;83.91;101898.53;5071288;28;20503;-74
2022/09/02 06:40:33;;;;;;;77.63;74.47;;;;;;;15.09;84.41;101899.34;5074957;28;20484;-74
2022/09/02 06:42:58;;;;;;;81.70;76.10;;;;;;;15.22;84.35;101905.94;5069927;28;20123;-74
2022/09/02 06:45:24;;;;;;;65.45;62.92;;;;;;;15.32;81.74;101911.16;5077445;28;20021;-74
2022/09/02 06:47:50;;;;;;;66.35;63.80;;;;;;;15.33;82.50;101890.72;5075436;28;20031;-74
2022/09/02 06:50:16;;;;;;;64.63;62.13;;;;;;;15.41;82.65;101899.56;5074350;28;20043;-74
2022/09/02 06:52:41;;;;;;;63.17;60.47;;;;;;;15.57;82.33;101904.19;5077854;28;20109;-74
2022/09/02 06:55:07;;;;;;;67.00;64.45;;;;;;;15.68;81.55;101902.22;5073727;28;20032;-74
2022/09/02 06:57:33;;;;;;;56.67;54.40;;;;;;;15.71;81.47;101901.94;5071316;28;20056;-74
2022/09/02 06:59:59;;;;;;;73.50;70.43;;;;;;;15.71;83.39;101900.13;5073152;28;20480;-74
2022/09/02 07:02:24;;;;;;;101.18;97.22;;;;;;;15.82;83.88;101902.50;5068442;28;20496;-73
2022/09/02 07:07:36;;;;;;;64.57;61.90;;;;;;;15.93;82.68;101884.59;5070452;28;20071;-74
2022/09/02 07:10:06;;;;;;;64.90;62.38;;;;;;;16.35;81.96;101897.91;5072595;28;20064;-74
2022/09/02 07:12:36;;;;;;;78.40;75.50;;;;;;;16.98;78.84;101899.19;5073831;28;20028;-74
2022/09/02 07:15:03;;;;;;;61.58;59.28;;;;;;;17.40;76.80;101897.34;5080215;28;20393;-75
2022/09/02 07:17:29;;;;;;;63.78;61.00;;;;;;;18.11;73.82;101895.63;5079732;28;20024;-75
2022/09/02 07:19:58;;;;;;;43.95;42.25;;;;;;;18.17;73.28;101888.75;5074935;28;20028;-74
2022/09/02 07:22:24;;;;;;;35.28;33.90;;;;;;;18.69;71.45;101888.13;5075460;28;20487;-74
2022/09/02 07:24:49;;;;;;;28.42;27.33;;;;;;;19.43;68.26;101896.34;5073518;28;20103;-74
2022/09/02 07:27:14;;;;;;;37.38;35.90;;;;;;;19.57;69.29;101884.00;5079953;28;20036;-74
2022/09/02 07:29:42;;;;;;;37.22;35.58;;;;;;;19.97;67.46;101894.44;5074745;28;20542;-74
2022/09/02 07:32:08;;;;;;;38.60;37.03;;;;;;;20.62;65.05;101895.41;5077441;28;20029;-74
2022/09/02 07:34:33;;;;;;;36.78;35.38;;;;;;;21.21;64.48;101888.91;5075754;28;20055;-74
2022/09/02 07:36:59;;;;;;;37.92;36.40;;;;;;;22.14;61.18;101903.72;5076729;28;20024;-74
2022/09/02 07:39:24;;;;;;;25.73;24.65;;;;;;;20.92;63.68;101891.56;5076793;28;20021;-74
2022/09/02 07:41:51;;;;;;;25.35;24.25;;;;;;;21.69;61.47;101892.56;5072806;28;20039;-74
2022/09/02 07:44:18;;;;;;;25.45;24.45;;;;;;;22.46;60.80;101887.09;5074235;28;20480;-74
2022/09/02 07:46:45;;;;;;;21.88;21.00;;;;;;;23.00;59.64;101897.75;5078091;28;20017;-75
2022/09/02 07:49:12;;;;;;;21.27;20.27;;;;;;;23.41;57.36;101888.59;5076443;28;20338;-75
2022/09/02 07:51:41;;;;;;;21.70;20.60;;;;;;;22.97;58.25;101894.59;5074871;28;20085;-74
2022/09/02 07:54:08;;;;;;;23.60;22.67;;;;;;;22.58;58.12;101891.69;5077309;28;20035;-74
2022/09/02 07:56:33;;;;;;;20.00;19.13;;;;;;;23.05;58.09;101883.66;5076567;28;20392;-74
2022/09/02 07:58:59;;;;;;;19.10;18.33;;;;;;;24.49;54.31;101887.16;5079094;28;20028;-74
2022/09/02 08:01:25;;;;;;;21.75;20.90;;;;;;;24.59;54.74;101884.81;5076925;28;20033;-74
2022/09/02 08:03:51;;;;;;;19.30;18.50;;;;;;;23.92;55.58;101870.03;5059764;28;20032;-74
2022/09/02 08:06:17;;;;;;;17.08;16.45;;;;;;;24.52;54.13;101889.44;5076024;28;20123;-74
2022/09/02 08:08:42;;;;;;;17.77;16.98;;;;;;;25.14;53.53;101876.06;5075500;28;20024;-74
2022/09/02 08:11:08;;;;;;;19.00;17.75;;;;;;;24.42;53.79;101872.88;5071717;28;20021;-74
2022/09/02 08:13:38;;;;;;;19.60;18.83;;;;;;;25.23;52.28;101882.03;5074536;28;20024;-75
2022/09/02 08:16:04;;;;;;;19.83;19.02;;;;;;;24.71;53.95;101870.63;5078830;28;20186;-74
2022/09/02 08:18:29;;;;;;;20.55;19.15;;;;;;;23.65;54.96;101875.50;5061990;28;20107;-74
2022/09/02 08:20:55;;;;;;;19.30;18.55;;;;;;;24.49;54.57;101870.16;5074587;28;20096;-74
2022/09/02 08:23:20;;;;;;;19.95;19.02;;;;;;;23.92;54.07;101878.13;5074980;28;20032;-74
2022/09/02 08:25:45;;;;;;;17.95;17.25;;;;;;;23.34;55.54;101863.56;5078173;28;20016;-74
2022/09/02 08:28:11;;;;;;;18.88;18.13;;;;;;;23.93;55.15;101868.97;5070243;28;20056;-74
2022/09/02 08:30:36;;;;;;;18.40;17.65;;;;;;;24.38;53.95;101868.94;5078397;28;20066;-74
2022/09/02 08:33:02;;;;;;;19.92;18.83;;;;;;;24.39;54.39;101862.53;5076633;28;20020;-74
2022/09/02 08:35:27;;;;;;;21.80;20.98;;;;;;;25.14;53.28;101867.16;5076853;28;20039;-74
2022/09/02 08:37:53;;;;;;;17.85;17.17;;;;;;;25.84;50.89;101877.63;5076960;28;20058;-74
2022/09/02 08:40:22;;;;;;;22.67;21.83;;;;;;;25.50;51.03;101870.94;5074699;28;20028;-74
2022/09/02 08:42:55;;;;;;;21.27;20.33;;;;;;;26.27;50.48;101865.84;5076782;28;20169;-74
2022/09/02 08:45:31;;;;;;;21.17;20.38;;;;;;;26.23;50.88;101884.41;5075714;28;20090;-74
2022/09/02 08:48:21;;;;;;;22.42;21.58;;;;;;;27.41;48.22;101860.25;5076016;28;20288;-74
2022/09/02 08:50:49;;;;;;;24.17;23.17;;;;;;;25.60;50.88;101872.06;5073256;28;20102;-74
2022/09/02 08:53:26;;;;;;;25.85;24.83;;;;;;;25.17;53.45;101862.13;5073380;28;20032;-74
2022/09/02 08:55:54;;;;;;;24.00;22.85;;;;;;;26.14;50.87;101864.16;5077324;28;20093;-74
2022/09/02 08:58:23;;;;;;;26.42;25.42;;;;;;;24.36;52.99;101850.28;5071736;28;20089;-73
2022/09/02 09:01:09;;;;;;;25.85;24.75;;;;;;;25.80;51.48;101852.91;5073362;28;20024;-74
2022/09/02 09:04:30;;;;;;;24.45;23.48;;;;;;;25.90;51.55;101860.53;5079199;28;20516;-74
2022/09/02 09:07:28;;;;;;;22.40;21.42;;;;;;;25.34;51.32;101829.13;5004949;28;20421;-74
2022/09/02 09:10:07;;;;;;;22.67;21.80;;;;;;;26.76;49.47;101850.34;5018567;28;20064;-74
2022/09/02 09:12:38;;;;;;;21.20;20.20;;;;;;;27.25;48.36;101864.50;5020392;28;20416;-74
2022/09/02 09:15:36;;;;;;;25.20;24.02;;;;;;;27.32;48.32;101845.41;5023633;28;20120;-74
2022/09/02 09:18:05;;;;;;;27.40;26.30;;;;;;;27.13;48.48;101843.84;5018329;28;20456;-74
2022/09/02 09:20:42;;;;;;;27.50;26.42;;;;;;;26.53;49.82;101840.28;5017990;28;20125;-74
2022/09/02 09:23:20;;;;;;;28.83;27.65;;;;;;;26.88;48.36;101831.38;5021207;28;20030;-73
2022/09/02 09:25:48;;;;;;;30.95;29.70;;;;;;;26.04;49.80;101837.66;5021613;28;20509;-74
2022/09/02 09:28:13;;;;;;;30.27;28.98;;;;;;;26.42;49.44;101828.38;5019614;28;20056;-74
2022/09/02 09:30:38;;;;;;;29.05;27.85;;;;;;;26.80;48.61;101819.00;5022190;28;20472;-74
2022/09/02 09:33:04;;;;;;;25.00;23.90;;;;;;;27.62;47.07;101830.84;4986590;28;20033;-74
2022/09/02 09:35:52;;;;;;;28.55;27.35;;;;;;;26.75;48.29;101818.09;5016970;28;20073;-74
2022/09/02 09:38:37;;;;;;;30.45;28.85;;;;;;;26.14;49.68;101823.56;5034775;28;20177;-74
2022/09/02 09:41:15;;;;;;;28.27;27.00;;;;;;;25.85;50.09;101820.63;5041833;28;20048;-74
2022/09/02 09:43:40;;;;;;;28.92;27.50;;;;;;;25.81;49.62;101821.31;5073143;28;20020;-74
2022/09/02 09:46:23;;;;;;;26.42;25.38;;;;;;;24.82;51.08;101816.75;5077130;28;20334;-74
2022/09/02 09:48:50;;;;;;;27.05;25.92;;;;;;;24.20;52.30;101807.66;5061398;28;20485;-74
2022/09/02 09:51:16;;;;;;;21.70;20.83;;;;;;;25.39;51.44;101795.00;5072686;28;20365;-74
2022/09/02 09:53:41;;;;;;;22.55;21.65;;;;;;;25.01;51.56;101796.00;5056696;28;20097;-74
2022/09/02 09:56:13;;;;;;;22.73;21.85;;;;;;;25.25;50.87;101812.41;5077341;28;20032;-74
2022/09/02 09:58:38;;;;;;;22.02;21.00;;;;;;;25.05;51.06;101826.91;5072508;28;20098;-74
2022/09/02 10:01:12;;;;;;;20.90;20.00;;;;;;;25.70;49.74;101803.97;5072345;28;20492;-74
2022/09/02 10:03:42;;;;;;;19.60;18.80;;;;;;;26.64;49.17;101798.06;5076616;28;20782;-74
2022/09/02 10:06:21;;;;;;;18.90;18.02;;;;;;;26.44;48.30;101796.47;5070910;28;20050;-74
2022/09/02 10:09:01;;;;;;;21.60;20.65;;;;;;;26.42;48.38;101805.88;5059529;28;20020;-76
2022/09/02 10:11:35;;;;;;;22.63;21.55;;;;;;;25.37;49.63;101804.34;5070741;28;20484;-74
2022/09/02 10:14:04;;;;;;;22.50;21.60;;;;;;;25.88;49.41;101797.72;5072475;28;20476;-74
2022/09/02 10:17:07;;;;;;;19.83;19.02;;;;;;;25.90;48.81;101794.81;5078195;28;20415;-74
2022/09/02 10:19:43;;;;;;;23.25;22.15;;;;;;;25.79;49.27;101793.66;5073489;28;20358;-74
2022/09/02 10:22:21;;;;;;;21.92;21.02;;;;;;;26.16;47.59;101793.59;5071339;28;20028;-74
2022/09/02 10:25:06;;;;;;;19.33;18.52;;;;;;;26.10;48.47;101789.09;5069898;28;20512;-73
2022/09/02 10:27:37;;;;;;;20.00;19.20;;;;;;;26.82;47.72;101778.16;5074493;28;20027;-73
2022/09/02 10:30:05;;;;;;;21.75;20.27;;;;;;;26.76;47.37;101781.81;5067703;28;20044;-74
2022/09/02 10:32:31;;;;;;;21.88;21.00;;;;;;;26.50;48.23;101775.78;5078394;28;20024;-74
2022/09/02 10:35:15;;;;;;;19.58;18.77;;;;;;;27.63;45.83;101780.97;5068585;28;20051;-73
2022/09/02 10:38:02;;;;;;;21.58;20.67;;;;;;;26.96;46.35;101770.59;5071954;28;20408;-73
2022/09/02 10:40:42;;;;;;;22.08;21.08;;;;;;;27.55;45.78;101779.47;5055032;28;20036;-73
2022/09/02 10:43:17;;;;;;;22.65;21.77;;;;;;;27.68;44.98;101768.34;5073698;28;20586;-73
2022/09/02 10:45:49;;;;;;;23.27;22.33;;;;;;;27.28;45.46;101779.19;5081116;28;20392;-73
2022/09/02 10:48:55;;;;;;;22.88;21.92;;;;;;;28.36;43.99;101773.91;5067358;28;20551;-74
2022/09/02 10:52:05;;;;;;;23.30;22.30;;;;;;;27.79;44.83;101758.50;5072485;28;20074;-74
2022/09/02 10:54:55;;;;;;;22.25;21.15;;;;;;;28.16;45.00;101752.66;4984654;28;20478;-74
2022/09/02 10:57:38;;;;;;;25.05;23.83;;;;;;;27.67;44.95;101755.00;4984949;28;20117;-73
2022/09/02 11:00:18;;;;;;;24.05;23.13;;;;;;;26.87;46.11;101749.31;4985534;28;20042;-73
2022/09/02 11:02:52;;;;;;;25.75;24.52;;;;;;;27.66;44.98;101748.78;4984147;28;20042;-74
2022/09/02 11:05:24;;;;;;;20.58;19.58;;;;;;;26.98;45.63;101741.41;4984556;28;20058;-74
2022/09/02 11:08:13;;;;;;;19.30;18.42;;;;;;;27.20;45.27;101744.31;4984584;28;20030;-74
2022/09/02 11:11:10;;;;;;;20.83;19.73;;;;;;;27.35;46.17;101730.25;4984947;28;20061;-74
2022/09/02 11:13:55;;;;;;;17.77;17.05;;;;;;;28.93;44.16;101726.66;4983029;28;20530;-74
2022/09/02 11:16:45;;;;;;;20.83;19.63;;;;;;;27.83;44.11;101724.41;4984270;28;20816;-73
2022/09/02 11:19:18;;;;;;;20.83;19.80;;;;;;;26.99;45.09;101705.94;4968937;28;20453;-73
2022/09/02 11:22:02;;;;;;;19.40;18.45;;;;;;;27.32;45.01;101718.03;4984866;28;20042;-73
2022/09/02 11:24:43;;;;;;;25.30;24.30;;;;;;;28.13;44.58;101715.16;4984792;28;20044;-73